Terminal Aerodrome Forecast
Issued by NWS Charleston, SC

Home | Current Version | Previous Version | Text Only | Print | Product List | Glossary On
Versions: 1 2 3 4 5 6 7 8 9 10 11 12 13 14 15 16 17 18 19 20
331
FTUS42 KCHS 240521
TAFSAV
TAF
KSAV 240521Z 2406/2506 02003KT P6SM FEW015
      TEMPO 2409/2413 3SM BR SCT003 BKN010
     FM241500 07007KT P6SM FEW035=

USA.gov is the U.S. government's official web portal to all federal, state and local government web resources and services.